Time;durP1;ratioP1;P1;durP2;ratioP2;P2;SDS_P1;SDS_P2;PMS_P1;PMS_P2;Temp;Humidity;BMP_temperature;BMP_pressure;BME280_temperature;BME280_humidity;BME280_pressure;Samples;Min_cycle;Max_cycle;Signal;HPM_P1;HPM_P2
2021/09/11 00:01:40;;;;;;;23.50;20.52;;;;;;;;;;5035422;28;20436;-62
2021/09/11 00:04:06;;;;;;;26.73;21.30;;;;;;;;;;5033817;28;20376;-62
2021/09/11 00:06:32;;;;;;;25.08;20.60;;;;;;;;;;5033270;28;20025;-62
2021/09/11 00:08:58;;;;;;;25.25;20.30;;;;;;;;;;5035678;28;20027;-61
2021/09/11 00:11:24;;;;;;;24.38;20.40;;;;;;;;;;5035061;28;20014;-62
2021/09/11 00:13:50;;;;;;;23.42;20.75;;;;;;;;;;5033777;28;20030;-62
2021/09/11 00:16:16;;;;;;;23.33;20.23;;;;;;;;;;5033958;28;20022;-62
2021/09/11 00:18:42;;;;;;;23.08;20.25;;;;;;;;;;5033340;28;20057;-62
2021/09/11 00:21:08;;;;;;;23.25;20.60;;;;;;;;;;5034858;28;20022;-62
2021/09/11 00:23:34;;;;;;;26.13;21.08;;;;;;;;;;5034916;28;20021;-62
2021/09/11 00:26:00;;;;;;;23.15;20.63;;;;;;;;;;5034968;28;20029;-62
2021/09/11 00:28:27;;;;;;;24.70;21.27;;;;;;;;;;5035002;28;20049;-61
2021/09/11 00:30:53;;;;;;;25.77;21.13;;;;;;;;;;5033552;28;20030;-62
2021/09/11 00:33:19;;;;;;;27.13;21.92;;;;;;;;;;5033808;28;20033;-62
2021/09/11 00:35:45;;;;;;;28.08;22.20;;;;;;;;;;5034934;28;20476;-62
2021/09/11 00:38:11;;;;;;;24.67;21.60;;;;;;;;;;5034487;28;20043;-63
2021/09/11 00:40:37;;;;;;;23.58;20.90;;;;;;;;;;5045523;28;20028;-62
2021/09/11 00:43:03;;;;;;;25.42;21.75;;;;;;;;;;5047530;28;20417;-62
2021/09/11 00:45:29;;;;;;;26.75;21.30;;;;;;;;;;5032317;28;20021;-62
2021/09/11 00:47:55;;;;;;;27.42;20.80;;;;;;;;;;5034323;28;20484;-61
2021/09/11 00:50:21;;;;;;;22.25;19.30;;;;;;;;;;5034741;28;20021;-61
2021/09/11 00:52:47;;;;;;;24.38;19.48;;;;;;;;;;5034710;28;20468;-62
2021/09/11 00:55:14;;;;;;;26.58;21.23;;;;;;;;;;5033578;28;20124;-62
2021/09/11 00:57:41;;;;;;;25.52;20.25;;;;;;;;;;5031662;28;20076;-62
2021/09/11 01:00:07;;;;;;;28.00;21.73;;;;;;;;;;5034151;28;20028;-62
2021/09/11 01:02:33;;;;;;;27.02;22.52;;;;;;;;;;5034395;28;20480;-62
2021/09/11 01:05:00;;;;;;;26.88;21.85;;;;;;;;;;5039931;28;20035;-62
2021/09/11 01:07:26;;;;;;;27.40;22.65;;;;;;;;;;5033612;28;20106;-62
2021/09/11 01:09:53;;;;;;;27.45;22.05;;;;;;;;;;5033068;28;20025;-62
2021/09/11 01:12:19;;;;;;;23.42;20.45;;;;;;;;;;5033505;28;20120;-62
2021/09/11 01:14:45;;;;;;;23.17;20.25;;;;;;;;;;5034196;28;20025;-62
2021/09/11 01:17:17;;;;;;;24.38;21.23;;;;;;;;;;5033942;28;20033;-62
2021/09/11 01:19:43;;;;;;;23.48;20.98;;;;;;;;;;5034291;28;20028;-62
2021/09/11 01:22:16;;;;;;;26.23;21.00;;;;;;;;;;5032388;28;20034;-62
2021/09/11 01:24:52;;;;;;;23.67;20.88;;;;;;;;;;5032182;28;20026;-62
2021/09/11 01:27:18;;;;;;;24.38;21.40;;;;;;;;;;5030632;28;20124;-61
2021/09/11 01:29:51;;;;;;;23.77;19.95;;;;;;;;;;5033616;28;20120;-61
2021/09/11 01:32:18;;;;;;;24.55;20.58;;;;;;;;;;5034268;28;20107;-60
2021/09/11 01:34:44;;;;;;;26.65;20.83;;;;;;;;;;5032624;28;20069;-60
2021/09/11 01:37:11;;;;;;;25.60;21.17;;;;;;;;;;5033889;28;20100;-61
2021/09/11 01:39:37;;;;;;;27.03;22.77;;;;;;;;;;5032037;28;20381;-61
2021/09/11 01:42:05;;;;;;;26.98;22.00;;;;;;;;;;5034063;28;20021;-61
2021/09/11 01:44:31;;;;;;;;;;;;;;;;;;5033813;28;20022;-61
2021/09/11 01:46:57;;;;;;;24.58;21.20;;;;;;;;;;5039112;28;20321;-61
2021/09/11 01:49:23;;;;;;;26.88;22.50;;;;;;;;;;5033952;28;20117;-61
2021/09/11 01:51:49;;;;;;;25.15;21.65;;;;;;;;;;5032149;28;20069;-61
2021/09/11 01:54:15;;;;;;;25.60;21.20;;;;;;;;;;5033665;28;20029;-61
2021/09/11 01:56:41;;;;;;;25.90;21.70;;;;;;;;;;5033413;28;20469;-61
2021/09/11 01:59:07;;;;;;;27.77;22.02;;;;;;;;;;5033309;28;20025;-61
2021/09/11 02:01:33;;;;;;;28.38;21.60;;;;;;;;;;5033956;28;20048;-61
2021/09/11 02:03:59;;;;;;;30.25;22.25;;;;;;;;;;5033428;28;20400;-61
2021/09/11 02:06:26;;;;;;;24.88;20.67;;;;;;;;;;5031850;28;20025;-61
2021/09/11 02:08:52;;;;;;;24.13;20.85;;;;;;;;;;5034658;28;20033;-61
2021/09/11 02:11:18;;;;;;;25.88;21.17;;;;;;;;;;5037266;28;20017;-63
2021/09/11 02:13:44;;;;;;;23.63;20.35;;;;;;;;;;5036093;28;20532;-63
2021/09/11 02:16:10;;;;;;;24.77;21.02;;;;;;;;;;5037694;28;20021;-62
2021/09/11 02:18:36;;;;;;;24.20;20.60;;;;;;;;;;5035369;28;20021;-62
2021/09/11 02:21:02;;;;;;;29.98;21.73;;;;;;;;;;5037386;28;20021;-61
2021/09/11 02:23:28;;;;;;;23.30;20.80;;;;;;;;;;5037228;28;20108;-61
2021/09/11 02:25:54;;;;;;;24.42;20.30;;;;;;;;;;5037525;28;20036;-62
2021/09/11 02:28:20;;;;;;;24.20;19.10;;;;;;;;;;5036723;28;20411;-61
2021/09/11 02:30:46;;;;;;;23.90;19.40;;;;;;;;;;5035211;28;20029;-61
2021/09/11 02:33:12;;;;;;;23.60;19.33;;;;;;;;;;5033051;28;20021;-61
2021/09/11 02:35:38;;;;;;;24.95;20.70;;;;;;;;;;5036903;28;20370;-61
2021/09/11 02:38:04;;;;;;;25.30;21.33;;;;;;;;;;5036915;28;20029;-61
2021/09/11 02:40:30;;;;;;;23.45;20.17;;;;;;;;;;5037187;28;20014;-61
2021/09/11 02:42:56;;;;;;;24.67;21.70;;;;;;;;;;5036191;28;20051;-61
2021/09/11 02:45:22;;;;;;;24.83;21.50;;;;;;;;;;5035579;28;20443;-61
2021/09/11 02:47:48;;;;;;;24.80;20.95;;;;;;;;;;5036957;28;20037;-61
2021/09/11 02:50:14;;;;;;;25.52;20.70;;;;;;;;;;5036686;28;20116;-61
2021/09/11 02:52:40;;;;;;;26.00;20.80;;;;;;;;;;5035498;28;20040;-61
2021/09/11 02:55:06;;;;;;;24.70;21.33;;;;;;;;;;5036791;28;20028;-61
2021/09/11 02:57:32;;;;;;;27.30;20.55;;;;;;;;;;5034426;28;20108;-61
2021/09/11 02:59:58;;;;;;;25.65;20.85;;;;;;;;;;5036687;28;20041;-61
2021/09/11 03:02:24;;;;;;;24.55;20.23;;;;;;;;;;5036845;28;20025;-61
2021/09/11 03:04:50;;;;;;;25.30;21.70;;;;;;;;;;5036876;28;20025;-61
2021/09/11 03:07:16;;;;;;;26.63;22.63;;;;;;;;;;5036796;28;20139;-61
2021/09/11 03:09:42;;;;;;;26.05;22.52;;;;;;;;;;5033969;28;20025;-61
2021/09/11 03:12:08;;;;;;;26.95;22.83;;;;;;;;;;5036650;28;20037;-61
2021/09/11 03:14:34;;;;;;;26.90;21.98;;;;;;;;;;5036137;28;20076;-61
2021/09/11 03:17:00;;;;;;;27.63;21.20;;;;;;;;;;5036505;28;20033;-61
2021/09/11 03:19:26;;;;;;;28.95;23.25;;;;;;;;;;5036643;28;20032;-61
2021/09/11 03:21:52;;;;;;;26.75;21.27;;;;;;;;;;5034247;28;20072;-61
2021/09/11 03:24:18;;;;;;;25.52;21.73;;;;;;;;;;5035011;28;20084;-61
2021/09/11 03:26:44;;;;;;;27.10;22.75;;;;;;;;;;5035822;28;20093;-61
2021/09/11 03:29:10;;;;;;;24.60;21.30;;;;;;;;;;5036045;28;20049;-61
2021/09/11 03:31:36;;;;;;;28.60;23.27;;;;;;;;;;5034816;28;20026;-61
2021/09/11 03:34:02;;;;;;;26.20;23.17;;;;;;;;;;5035763;28;20033;-61
2021/09/11 03:36:28;;;;;;;30.52;23.70;;;;;;;;;;5029428;28;20033;-61
2021/09/11 03:38:54;;;;;;;28.90;24.95;;;;;;;;;;5035750;28;20068;-61
2021/09/11 03:41:20;;;;;;;30.98;25.02;;;;;;;;;;5036132;28;20420;-61
2021/09/11 03:43:46;;;;;;;25.33;21.77;;;;;;;;;;5035324;28;20551;-73
2021/09/11 03:46:12;;;;;;;27.45;23.30;;;;;;;;;;5035905;28;20048;-73
2021/09/11 03:48:38;;;;;;;31.70;26.83;;;;;;;;;;5033830;28;20045;-73
2021/09/11 03:51:04;;;;;;;32.75;29.17;;;;;;;;;;5035433;28;20495;-73
2021/09/11 03:53:30;;;;;;;33.08;26.52;;;;;;;;;;5035583;28;20026;-73
2021/09/11 03:55:56;;;;;;;33.63;26.40;;;;;;;;;;5035399;28;20048;-73
2021/09/11 03:58:22;;;;;;;31.95;25.75;;;;;;;;;;5035447;28;20032;-73
2021/09/11 04:00:48;;;;;;;30.08;24.45;;;;;;;;;;5032480;28;20028;-73
2021/09/11 04:03:14;;;;;;;31.05;25.40;;;;;;;;;;5035761;28;20033;-73
2021/09/11 04:05:40;;;;;;;29.77;23.88;;;;;;;;;;5035284;28;20026;-73
2021/09/11 04:08:06;;;;;;;32.42;26.45;;;;;;;;;;5034779;28;20374;-73
2021/09/11 04:10:31;;;;;;;32.85;24.98;;;;;;;;;;5034024;28;20029;-73
2021/09/11 04:12:57;;;;;;;30.85;25.10;;;;;;;;;;5034658;28;20405;-73
2021/09/11 04:15:23;;;;;;;35.50;28.08;;;;;;;;;;5033034;28;20033;-73
2021/09/11 04:17:49;;;;;;;32.83;27.30;;;;;;;;;;5035288;28;20079;-73
2021/09/11 04:20:16;;;;;;;31.23;26.15;;;;;;;;;;5035183;28;20026;-73
2021/09/11 04:22:42;;;;;;;29.40;25.17;;;;;;;;;;5034893;28;20036;-73
2021/09/11 04:25:08;;;;;;;34.75;26.60;;;;;;;;;;5034381;28;20025;-73
2021/09/11 04:27:34;;;;;;;31.38;25.75;;;;;;;;;;5032241;28;20420;-73
2021/09/11 04:30:00;;;;;;;31.00;26.90;;;;;;;;;;5033581;28;20121;-73
2021/09/11 04:32:26;;;;;;;30.75;25.27;;;;;;;;;;5034042;28;20044;-75
2021/09/11 04:34:52;;;;;;;32.25;25.73;;;;;;;;;;5034647;28;20095;-75
2021/09/11 04:37:18;;;;;;;29.55;24.02;;;;;;;;;;5034919;28;20024;-74
2021/09/11 04:39:44;;;;;;;28.92;23.13;;;;;;;;;;5032295;28;20038;-75
2021/09/11 04:42:10;;;;;;;30.52;23.83;;;;;;;;;;5034672;28;20057;-74
2021/09/11 04:44:36;;;;;;;29.80;24.38;;;;;;;;;;5034761;28;20381;-74
2021/09/11 04:47:02;;;;;;;28.80;24.30;;;;;;;;;;5034688;28;20033;-74
2021/09/11 04:49:28;;;;;;;26.05;21.40;;;;;;;;;;5039448;28;20032;-75
2021/09/11 04:51:54;;;;;;;25.52;21.30;;;;;;;;;;5033381;28;20385;-75
2021/09/11 04:54:20;;;;;;;31.20;25.08;;;;;;;;;;5033850;28;20103;-75
2021/09/11 04:56:46;;;;;;;32.90;26.23;;;;;;;;;;5034075;28;20434;-74
2021/09/11 04:59:12;;;;;;;34.17;28.02;;;;;;;;;;5034372;28;20026;-75
2021/09/11 05:01:38;;;;;;;35.30;27.52;;;;;;;;;;5034411;28;20369;-75
2021/09/11 05:04:04;;;;;;;31.85;27.45;;;;;;;;;;5034791;28;20021;-74
2021/09/11 05:06:30;;;;;;;37.50;28.92;;;;;;;;;;5032368;28;20021;-74
2021/09/11 05:08:56;;;;;;;36.30;28.13;;;;;;;;;;5034050;28;20040;-74
2021/09/11 05:11:22;;;;;;;34.70;25.88;;;;;;;;;;5033960;28;20022;-74
2021/09/11 05:13:48;;;;;;;32.30;26.88;;;;;;;;;;5034372;28;20026;-74
2021/09/11 05:16:14;;;;;;;32.38;27.20;;;;;;;;;;5034443;28;20029;-75
2021/09/11 05:18:40;;;;;;;30.17;25.67;;;;;;;;;;5032281;28;20063;-75
2021/09/11 05:21:07;;;;;;;31.23;24.42;;;;;;;;;;5033605;28;20148;-74
2021/09/11 05:23:34;;;;;;;26.45;22.25;;;;;;;;;;5033961;28;20018;-75
2021/09/11 05:26:00;;;;;;;27.23;21.05;;;;;;;;;;5034310;28;20096;-75
2021/09/11 05:28:26;;;;;;;25.33;21.20;;;;;;;;;;5032442;28;20042;-75
2021/09/11 05:30:52;;;;;;;29.35;21.92;;;;;;;;;;5032394;28;20079;-74
2021/09/11 05:33:18;;;;;;;30.10;22.50;;;;;;;;;;5033068;28;20026;-74
2021/09/11 05:35:44;;;;;;;28.52;23.30;;;;;;;;;;5033882;28;20172;-75
2021/09/11 05:38:10;;;;;;;32.25;26.30;;;;;;;;;;5034102;28;20029;-74
2021/09/11 05:40:36;;;;;;;32.55;26.30;;;;;;;;;;5034051;28;20029;-75
2021/09/11 05:43:02;;;;;;;30.40;23.67;;;;;;;;;;5046754;28;20037;-72
2021/09/11 05:45:28;;;;;;;29.77;23.40;;;;;;;;;;5035476;28;20459;-72
2021/09/11 05:47:54;;;;;;;29.02;23.38;;;;;;;;;;5037926;28;20121;-75
2021/09/11 05:50:20;;;;;;;26.88;23.05;;;;;;;;;;5037978;28;20037;-74
2021/09/11 05:52:46;;;;;;;27.13;22.75;;;;;;;;;;5037255;28;20029;-74
2021/09/11 05:55:12;;;;;;;26.63;23.00;;;;;;;;;;5045433;28;20030;-74
2021/09/11 05:57:38;;;;;;;28.75;23.95;;;;;;;;;;5035891;28;20499;-74
2021/09/11 06:00:05;;;;;;;24.30;21.30;;;;;;;;;;5036825;28;20026;-74
2021/09/11 06:02:31;;;;;;;26.40;21.92;;;;;;;;;;5037505;28;20467;-74
2021/09/11 06:04:57;;;;;;;26.55;21.88;;;;;;;;;;5037784;28;20026;-74
2021/09/11 06:07:23;;;;;;;28.35;22.88;;;;;;;;;;5036216;28;20049;-74
2021/09/11 06:09:49;;;;;;;28.80;23.90;;;;;;;;;;5035991;28;20053;-74
2021/09/11 06:12:15;;;;;;;28.42;23.95;;;;;;;;;;5037412;28;20100;-74
2021/09/11 06:14:41;;;;;;;31.20;24.55;;;;;;;;;;5037611;28;20033;-74
2021/09/11 06:17:08;;;;;;;29.08;24.02;;;;;;;;;;5036923;28;20025;-74
2021/09/11 06:19:34;;;;;;;27.42;21.58;;;;;;;;;;5037366;28;20031;-74
2021/09/11 06:22:01;;;;;;;25.13;22.05;;;;;;;;;;5037228;28;20124;-74
2021/09/11 06:24:27;;;;;;;26.00;20.35;;;;;;;;;;5035406;28;20032;-74
2021/09/11 06:26:53;;;;;;;26.45;22.20;;;;;;;;;;5035108;28;20032;-74
2021/09/11 06:29:19;;;;;;;23.58;20.40;;;;;;;;;;5037305;28;20053;-74
2021/09/11 06:31:45;;;;;;;22.30;18.65;;;;;;;;;;5037292;28;20022;-74
2021/09/11 06:34:11;;;;;;;20.00;17.25;;;;;;;;;;5035366;28;20021;-74
2021/09/11 06:36:37;;;;;;;21.50;15.73;;;;;;;;;;5034662;28;20435;-74
2021/09/11 06:39:03;;;;;;;18.10;15.00;;;;;;;;;;5037387;28;20049;-74
2021/09/11 06:41:29;;;;;;;17.08;14.52;;;;;;;;;;5038348;28;20392;-74
2021/09/11 06:43:55;;;;;;;17.58;13.82;;;;;;;;;;5037162;28;20064;-74
2021/09/11 06:46:21;;;;;;;15.95;13.13;;;;;;;;;;5042699;28;20452;-74
2021/09/11 06:48:47;;;;;;;15.27;12.60;;;;;;;;;;5034369;28;20155;-75
2021/09/11 06:51:13;;;;;;;15.15;12.10;;;;;;;;;;5037072;28;20024;-74
2021/09/11 06:53:40;;;;;;;15.60;11.30;;;;;;;;;;5036875;28;20041;-74
2021/09/11 06:56:06;;;;;;;13.00;11.63;;;;;;;;;;5035726;28;20017;-74
2021/09/11 06:58:32;;;;;;;13.68;11.32;;;;;;;;;;5036290;28;20067;-74
2021/09/11 07:00:58;;;;;;;16.25;11.77;;;;;;;;;;5035967;28;20021;-74
2021/09/11 07:03:24;;;;;;;15.45;11.48;;;;;;;;;;5034750;28;20021;-74
2021/09/11 07:05:50;;;;;;;14.13;11.18;;;;;;;;;;5036727;28;20026;-74
2021/09/11 07:08:16;;;;;;;15.68;11.02;;;;;;;;;;5036626;28;20044;-73
2021/09/11 07:10:45;;;;;;;12.13;10.82;;;;;;;;;;5041785;28;20064;-73
2021/09/11 07:13:11;;;;;;;13.65;11.68;;;;;;;;;;5035006;28;20392;-73
2021/09/11 07:15:39;;;;;;;15.48;12.25;;;;;;;;;;5034374;28;20163;-73
2021/09/11 07:18:05;;;;;;;14.50;12.20;;;;;;;;;;5035185;28;20563;-73
2021/09/11 07:20:31;;;;;;;14.35;12.55;;;;;;;;;;5036151;28;20033;-73
2021/09/11 07:22:57;;;;;;;13.95;11.93;;;;;;;;;;5036261;28;20028;-73
2021/09/11 07:25:23;;;;;;;14.02;11.63;;;;;;;;;;5034827;28;20544;-74
2021/09/11 07:27:49;;;;;;;12.43;11.13;;;;;;;;;;5033872;28;20140;-74
2021/09/11 07:30:15;;;;;;;17.10;11.20;;;;;;;;;;5036061;28;20037;-74
2021/09/11 07:32:41;;;;;;;12.95;11.13;;;;;;;;;;5035825;28;20068;-74
2021/09/11 07:35:07;;;;;;;12.63;10.40;;;;;;;;;;5035827;28;20029;-74
2021/09/11 07:37:33;;;;;;;13.77;10.68;;;;;;;;;;5036218;28;20021;-74
2021/09/11 07:39:59;;;;;;;12.57;10.70;;;;;;;;;;5035233;28;20339;-74
2021/09/11 07:42:25;;;;;;;14.45;10.05;;;;;;;;;;5033983;28;20117;-74
2021/09/11 07:44:51;;;;;;;12.85;10.05;;;;;;;;;;5035975;28;20017;-74
2021/09/11 07:47:17;;;;;;;12.90;10.07;;;;;;;;;;5035724;28;20041;-74
2021/09/11 07:49:44;;;;;;;11.80;9.50;;;;;;;;;;5035547;28;20459;-75
2021/09/11 07:52:10;;;;;;;12.70;9.88;;;;;;;;;;5035665;28;20029;-74
2021/09/11 07:54:36;;;;;;;11.50;9.68;;;;;;;;;;5033457;28;20021;-74
2021/09/11 07:57:02;;;;;;;11.35;10.15;;;;;;;;;;5035928;28;20504;-74
2021/09/11 07:59:28;;;;;;;11.60;10.35;;;;;;;;;;5035587;28;20072;-74
2021/09/11 08:01:54;;;;;;;10.85;9.68;;;;;;;;;;5035016;28;20029;-74
2021/09/11 08:04:20;;;;;;;14.68;10.15;;;;;;;;;;5034212;28;20024;-74
2021/09/11 08:06:46;;;;;;;11.60;10.32;;;;;;;;;;5033355;28;20035;-74
2021/09/11 08:09:12;;;;;;;11.55;10.32;;;;;;;;;;5033355;28;20059;-74
2021/09/11 08:11:38;;;;;;;12.95;10.40;;;;;;;;;;5035107;28;20017;-74
2021/09/11 08:14:05;;;;;;;11.80;9.43;;;;;;;;;;5034910;28;20051;-74
2021/09/11 08:16:31;;;;;;;12.52;9.80;;;;;;;;;;5035340;28;20512;-74
2021/09/11 08:18:57;;;;;;;11.93;10.05;;;;;;;;;;5034482;28;20108;-74
2021/09/11 08:21:23;;;;;;;11.10;9.98;;;;;;;;;;5033486;28;20160;-74
2021/09/11 08:23:49;;;;;;;12.88;9.95;;;;;;;;;;5034817;28;20489;-74
2021/09/11 08:26:15;;;;;;;12.52;10.35;;;;;;;;;;5035152;28;20021;-74
2021/09/11 08:28:41;;;;;;;12.70;9.88;;;;;;;;;;5034650;28;20049;-74
2021/09/11 08:31:07;;;;;;;16.70;10.30;;;;;;;;;;5035012;28;20029;-74
2021/09/11 08:33:33;;;;;;;11.07;9.63;;;;;;;;;;5032437;28;20392;-74
2021/09/11 08:36:00;;;;;;;13.27;9.95;;;;;;;;;;5034955;28;20550;-74
2021/09/11 08:38:25;;;;;;;11.55;10.18;;;;;;;;;;5035068;28;20108;-74
2021/09/11 08:40:52;;;;;;;12.90;9.60;;;;;;;;;;5034855;28;20112;-74
2021/09/11 08:43:19;;;;;;;12.25;9.88;;;;;;;;;;5032956;28;20492;-75
2021/09/11 08:45:45;;;;;;;12.45;10.45;;;;;;;;;;5032380;28;20032;-74
2021/09/11 08:48:11;;;;;;;11.17;9.97;;;;;;;;;;5034656;28;20073;-74
2021/09/11 08:50:37;;;;;;;10.70;9.48;;;;;;;;;;5034622;28;20040;-74
2021/09/11 08:53:04;;;;;;;12.73;10.25;;;;;;;;;;5034660;28;20036;-73
2021/09/11 08:55:30;;;;;;;13.18;10.32;;;;;;;;;;5034761;28;20041;-74
2021/09/11 08:57:57;;;;;;;11.73;10.07;;;;;;;;;;5032734;28;20029;-73
2021/09/11 09:00:35;;;;;;;13.90;10.87;;;;;;;;;;5033279;28;20022;-73
2021/09/11 09:03:01;;;;;;;13.65;10.30;;;;;;;;;;5034934;28;20738;-73
2021/09/11 09:05:27;;;;;;;13.93;10.63;;;;;;;;;;5034488;28;20033;-73
2021/09/11 09:07:53;;;;;;;13.88;10.90;;;;;;;;;;5034522;28;20041;-73
2021/09/11 09:10:19;;;;;;;13.77;10.57;;;;;;;;;;5033974;28;20032;-73
2021/09/11 09:12:46;;;;;;;12.50;10.15;;;;;;;;;;5031797;28;20108;-73
2021/09/11 09:15:12;;;;;;;13.70;10.20;;;;;;;;;;5034577;28;20029;-73
2021/09/11 09:17:38;;;;;;;12.35;10.68;;;;;;;;;;5034393;28;20397;-73
2021/09/11 09:20:21;;;;;;;14.02;10.85;;;;;;;;;;5033646;28;20021;-73
2021/09/11 09:23:08;;;;;;;15.07;10.25;;;;;;;;;;5032126;28;20389;-73
2021/09/11 09:25:35;;;;;;;11.82;10.27;;;;;;;;;;5034389;28;20061;-73
2021/09/11 09:28:02;;;;;;;13.32;10.38;;;;;;;;;;5016635;28;20512;-73
2021/09/11 09:30:40;;;;;;;12.60;10.85;;;;;;;;;;5031625;28;20036;-73
2021/09/11 09:33:07;;;;;;;14.25;10.98;;;;;;;;;;5032908;28;20030;-73
2021/09/11 09:35:33;;;;;;;14.77;10.98;;;;;;;;;;5034059;28;20075;-73
2021/09/11 09:38:07;;;;;;;14.88;10.23;;;;;;;;;;5034185;28;20025;-73
2021/09/11 09:40:34;;;;;;;12.25;10.77;;;;;;;;;;5033825;28;20079;-73
2021/09/11 09:43:00;;;;;;;13.35;10.88;;;;;;;;;;5032959;28;20036;-73
2021/09/11 09:45:30;;;;;;;14.85;10.55;;;;;;;;;;5032306;28;20022;-73
2021/09/11 09:48:14;;;;;;;11.43;10.00;;;;;;;;;;5033982;28;20120;-73
2021/09/11 09:50:42;;;;;;;11.65;10.25;;;;;;;;;;5032021;28;20060;-73
2021/09/11 09:53:09;;;;;;;12.85;11.13;;;;;;;;;;5033805;28;20033;-73
2021/09/11 09:55:35;;;;;;;18.20;11.10;;;;;;;;;;5033916;28;20037;-73
2021/09/11 09:58:02;;;;;;;17.15;11.43;;;;;;;;;;5017746;28;20102;-73
2021/09/11 10:00:28;;;;;;;13.15;10.90;;;;;;;;;;5031516;28;20385;-73
2021/09/11 10:02:54;;;;;;;13.68;11.70;;;;;;;;;;5032468;28;20112;-73
2021/09/11 10:05:23;;;;;;;13.13;11.43;;;;;;;;;;5033470;28;20026;-74
2021/09/11 10:07:58;;;;;;;14.18;10.82;;;;;;;;;;5033320;28;20069;-73
2021/09/11 10:10:28;;;;;;;13.88;11.30;;;;;;;;;;5033633;28;20059;-73
2021/09/11 10:13:04;;;;;;;13.73;11.13;;;;;;;;;;5032541;28;20042;-73
2021/09/11 10:15:35;;;;;;;15.93;10.75;;;;;;;;;;5027226;28;20025;-73
2021/09/11 10:18:02;;;;;;;13.25;10.52;;;;;;;;;;5032151;28;20030;-73
2021/09/11 10:20:28;;;;;;;12.70;11.35;;;;;;;;;;5033629;28;20029;-73
2021/09/11 10:23:04;;;;;;;14.02;11.18;;;;;;;;;;5033280;28;20087;-73
2021/09/11 10:25:39;;;;;;;14.35;11.73;;;;;;;;;;5033212;28;20057;-73
2021/09/11 10:28:15;;;;;;;14.55;11.30;;;;;;;;;;5016652;28;20076;-73
2021/09/11 10:31:00;;;;;;;14.32;11.82;;;;;;;;;;5033484;28;20493;-73
2021/09/11 10:33:41;;;;;;;13.55;11.50;;;;;;;;;;5035094;28;20057;-73
2021/09/11 10:36:11;;;;;;;13.55;10.85;;;;;;;;;;5036304;28;20431;-73
2021/09/11 10:38:41;;;;;;;13.98;11.63;;;;;;;;;;5037294;28;20452;-72
2021/09/11 10:41:10;;;;;;;14.80;11.43;;;;;;;;;;5035847;28;20079;-73
2021/09/11 10:43:36;;;;;;;15.05;12.18;;;;;;;;;;5036936;28;20357;-73
2021/09/11 10:46:07;;;;;;;13.70;11.40;;;;;;;;;;5037105;28;20105;-73
2021/09/11 10:48:47;;;;;;;13.35;11.68;;;;;;;;;;5045967;28;20040;-73
2021/09/11 10:51:33;;;;;;;14.40;12.15;;;;;;;;;;5032441;28;20033;-73
2021/09/11 10:53:59;;;;;;;14.88;11.57;;;;;;;;;;5036973;28;20025;-73
2021/09/11 10:56:27;;;;;;;13.70;11.48;;;;;;;;;;5036980;28;20018;-73
2021/09/11 10:59:11;;;;;;;16.83;12.00;;;;;;;;;;5036270;28;20036;-74
2021/09/11 11:01:56;;;;;;;15.77;11.73;;;;;;;;;;5036778;28;20029;-73
2021/09/11 11:04:22;;;;;;;13.35;11.38;;;;;;;;;;5036544;28;20407;-73
2021/09/11 11:06:51;;;;;;;15.07;11.47;;;;;;;;;;5034768;28;20108;-73
2021/09/11 11:09:18;;;;;;;13.57;11.25;;;;;;;;;;5035877;28;20116;-73
2021/09/11 11:11:44;;;;;;;14.90;10.98;;;;;;;;;;5036639;28;20032;-73
2021/09/11 11:14:10;;;;;;;13.27;10.93;;;;;;;;;;5035975;28;20469;-73
2021/09/11 11:16:49;;;;;;;14.48;11.60;;;;;;;;;;5036669;28;20051;-73
2021/09/11 11:19:34;;;;;;;15.73;11.52;;;;;;;;;;5035352;28;20025;-74
2021/09/11 11:22:07;;;;;;;16.35;12.15;;;;;;;;;;5035903;28;20044;-73
2021/09/11 11:24:35;;;;;;;15.55;12.02;;;;;;;;;;5029946;28;20381;-74
2021/09/11 11:27:02;;;;;;;16.95;11.95;;;;;;;;;;5043288;28;20394;-74
2021/09/11 11:29:28;;;;;;;13.82;11.25;;;;;;;;;;5032418;28;20136;-73
2021/09/11 11:31:55;;;;;;;13.50;11.30;;;;;;;;;;5036229;28;20022;-74
2021/09/11 11:34:21;;;;;;;15.63;11.77;;;;;;;;;;5035629;28;20044;-73
2021/09/11 11:36:51;;;;;;;14.23;11.95;;;;;;;;;;5034078;28;20021;-74
2021/09/11 11:39:22;;;;;;;16.50;12.13;;;;;;;;;;5032429;28;20026;-74
2021/09/11 11:42:04;;;;;;;18.13;11.63;;;;;;;;;;5034818;28;20059;-74
2021/09/11 11:44:31;;;;;;;16.67;12.05;;;;;;;;;;5036213;28;20036;-61
2021/09/11 11:47:02;;;;;;;16.17;12.00;;;;;;;;;;5034596;28;20014;-62
2021/09/11 11:49:38;;;;;;;17.58;11.98;;;;;;;;;;5035964;28;20021;-61
2021/09/11 11:52:08;;;;;;;16.30;12.23;;;;;;;;;;5020116;28;20022;-62
2021/09/11 11:54:35;;;;;;;17.25;12.57;;;;;;;;;;5033200;28;20032;-61
2021/09/11 11:57:12;;;;;;;15.20;12.25;;;;;;;;;;5034153;28;20109;-62
2021/09/11 11:59:38;;;;;;;16.30;12.48;;;;;;;;;;5034453;28;20080;-61
2021/09/11 12:02:39;;;;;;;18.70;12.85;;;;;;;;;;5035342;28;20032;-62
2021/09/11 12:05:16;;;;;;;14.88;12.07;;;;;;;;;;5009673;28;20041;-62
2021/09/11 12:07:42;;;;;;;13.48;11.27;;;;;;;;;;5018009;28;20057;-61
2021/09/11 12:10:15;;;;;;;15.13;11.23;;;;;;;;;;5035765;28;20029;-61
2021/09/11 12:12:45;;;;;;;15.98;12.05;;;;;;;;;;5033206;28;20022;-61
2021/09/11 12:15:12;;;;;;;14.43;11.50;;;;;;;;;;5035127;28;20152;-61
2021/09/11 12:17:50;;;;;;;17.50;12.73;;;;;;;;;;5035448;28;20025;-61
2021/09/11 12:20:16;;;;;;;15.27;10.65;;;;;;;;;;5035485;28;20025;-61
2021/09/11 12:22:43;;;;;;;13.65;11.57;;;;;;;;;;5035180;28;20057;-63
2021/09/11 12:25:09;;;;;;;16.27;11.88;;;;;;;;;;5047303;28;20048;-61
2021/09/11 12:27:35;;;;;;;14.65;11.75;;;;;;;;;;5032270;28;20120;-61
2021/09/11 12:30:05;;;;;;;16.65;12.05;;;;;;;;;;5033492;28;20159;-61
2021/09/11 12:32:31;;;;;;;13.15;10.88;;;;;;;;;;5035234;28;20032;-61
2021/09/11 12:35:05;;;;;;;15.82;11.60;;;;;;;;;;5034574;28;20025;-61
2021/09/11 12:37:31;;;;;;;16.52;11.05;;;;;;;;;;5033753;28;20028;-61
2021/09/11 12:39:57;;;;;;;13.05;11.18;;;;;;;;;;5034003;28;20381;-61
2021/09/11 12:42:23;;;;;;;14.45;11.80;;;;;;;;;;5033360;28;20026;-61
2021/09/11 12:44:49;;;;;;;16.88;11.48;;;;;;;;;;5034841;28;20029;-61
2021/09/11 12:47:15;;;;;;;16.30;12.00;;;;;;;;;;5034336;28;20021;-62
2021/09/11 12:49:42;;;;;;;15.20;11.32;;;;;;;;;;5034707;28;20459;-62
2021/09/11 12:52:09;;;;;;;14.45;11.50;;;;;;;;;;5034728;28;20029;-62
2021/09/11 12:54:36;;;;;;;17.52;10.82;;;;;;;;;;5031137;28;20022;-62
2021/09/11 12:57:02;;;;;;;15.18;11.65;;;;;;;;;;5033057;28;20492;-62
2021/09/11 12:59:28;;;;;;;16.20;11.85;;;;;;;;;;5034434;28;20064;-62
2021/09/11 13:01:54;;;;;;;15.93;11.00;;;;;;;;;;5040047;28;20116;-63
2021/09/11 13:04:20;;;;;;;14.30;10.98;;;;;;;;;;5034141;28;20022;-62
2021/09/11 13:06:46;;;;;;;12.48;10.88;;;;;;;;;;5032507;28;20022;-62
2021/09/11 13:09:14;;;;;;;19.58;11.48;;;;;;;;;;5034253;28;20107;-62
2021/09/11 13:11:40;;;;;;;14.43;11.68;;;;;;;;;;5034337;28;20029;-62
2021/09/11 13:14:07;;;;;;;15.45;11.30;;;;;;;;;;5033671;28;20056;-62
2021/09/11 13:16:34;;;;;;;14.70;11.23;;;;;;;;;;5032994;28;20021;-61
2021/09/11 13:19:00;;;;;;;16.65;12.23;;;;;;;;;;5033532;28;20021;-62
2021/09/11 13:21:26;;;;;;;13.43;11.25;;;;;;;;;;5032601;28;20029;-61
2021/09/11 13:23:53;;;;;;;15.13;11.05;;;;;;;;;;5033812;28;20040;-61
2021/09/11 13:26:20;;;;;;;15.40;11.23;;;;;;;;;;5034169;28;20030;-62
2021/09/11 13:28:46;;;;;;;12.15;10.73;;;;;;;;;;5033584;28;20076;-62
2021/09/11 13:31:13;;;;;;;15.20;11.30;;;;;;;;;;5041763;28;20026;-61
2021/09/11 13:33:39;;;;;;;15.13;11.43;;;;;;;;;;5031941;28;20030;-62
2021/09/11 13:36:05;;;;;;;15.98;10.95;;;;;;;;;;5032804;28;20334;-62
2021/09/11 13:38:32;;;;;;;14.88;10.95;;;;;;;;;;5034051;28;20089;-62
2021/09/11 13:40:58;;;;;;;12.55;11.25;;;;;;;;;;5033491;28;20021;-62
2021/09/11 13:43:24;;;;;;;14.90;11.80;;;;;;;;;;5032639;28;20137;-62
2021/09/11 13:45:51;;;;;;;12.57;11.00;;;;;;;;;;5032378;28;20452;-61
2021/09/11 13:48:17;;;;;;;14.75;11.25;;;;;;;;;;5031961;28;20427;-61
2021/09/11 13:50:43;;;;;;;13.88;10.95;;;;;;;;;;5033615;28;20053;-60
2021/09/11 13:53:10;;;;;;;15.88;11.70;;;;;;;;;;5033649;28;20492;-62
2021/09/11 13:55:36;;;;;;;15.05;11.48;;;;;;;;;;5032581;28;20049;-62
2021/09/11 13:58:02;;;;;;;15.07;10.95;;;;;;;;;;5017883;28;20400;-62
2021/09/11 14:00:29;;;;;;;14.00;11.38;;;;;;;;;;5031877;28;20022;-62
2021/09/11 14:02:57;;;;;;;15.83;12.13;;;;;;;;;;5033286;28;20440;-62
2021/09/11 14:05:23;;;;;;;20.30;11.52;;;;;;;;;;5035316;28;20017;-62
2021/09/11 14:07:49;;;;;;;15.32;11.48;;;;;;;;;;5037833;28;20446;-62
2021/09/11 14:10:17;;;;;;;18.10;11.43;;;;;;;;;;5037821;28;20108;-62
2021/09/11 14:12:43;;;;;;;14.68;11.43;;;;;;;;;;5035579;28;20113;-62
2021/09/11 14:15:10;;;;;;;15.65;11.65;;;;;;;;;;5037588;28;20029;-62
2021/09/11 14:17:36;;;;;;;15.30;11.50;;;;;;;;;;5036735;28;20377;-62
2021/09/11 14:20:02;;;;;;;13.15;10.57;;;;;;;;;;5037455;28;20503;-62